Decoded Metar for CYPX (PUVIRGNITUQ in QC, CANADA) (IATA:YPX) | Meteo·Mobile Aviation Weather
aviador You're here:

CYPX Decoded Metar

PUVIRGNITUQ in QC, CANADA
Report Time2019-01-19 16:00:00
UTC Time2019-01-19 16:23:27
Flight Rules vfr VFR
Wind290° at 12 kt
W.Decomp.*RWY 01: 6.2 kt HW 10.3 kt LCW
W.Rank290° ranks 12
Current wind is below 290° avg. (12.1)
Visibility9999 m
Phenomena:N/A
Clouds:Few 240 Hf
Expected CloudBase > 1,200 ft AGL from Temp-Dew spread
CeilingNone
Temp-23°C (ISA -38)
Dew Point-26°C (77% RH)
AAT-31.1°C
QNH1014 hPa
Density Alt-4,833 ft
Elevation75 ft
Report Wrong Elevation
Raw Report
CYPX 191600Z AUTO 29012KT 9SM FEW240 M23/M26 A2993 RMK SLP142=

Extra information for CYPX:More info

Metar Taf Metar & Taf Last 4 Metars F.Rules Stats Wind Profile Meteogram Temp Stats Airport Information Weather charts Add Link Nearby VenuesMetar ALERT Operation Metar Decoded Social comments